Time;durP1;ratioP1;P1;durP2;ratioP2;P2;SDS_P1;SDS_P2;PMS_P1;PMS_P2;Temp;Humidity;BMP_temperature;BMP_pressure;BME280_temperature;BME280_humidity;BME280_pressure;Samples;Min_cycle;Max_cycle;Signal;HPM_P1;HPM_P2
2021/06/21 00:00:17;;;;;;;4.10;1.30;;;;;;;;;;4908301;29;20584;-56
2021/06/21 00:02:43;;;;;;;4.25;1.45;;;;;;;;;;4906798;29;20044;-56
2021/06/21 00:05:09;;;;;;;5.15;1.30;;;;;;;;;;4908167;29;20086;-55
2021/06/21 00:07:35;;;;;;;4.30;1.65;;;;;;;;;;4906171;29;20115;-56
2021/06/21 00:10:01;;;;;;;5.13;1.45;;;;;;;;;;4906028;29;20054;-56
2021/06/21 00:12:27;;;;;;;5.07;1.42;;;;;;;;;;4904913;29;20424;-56
2021/06/21 00:14:53;;;;;;;3.80;1.63;;;;;;;;;;4906515;29;20048;-56
2021/06/21 00:17:19;;;;;;;3.58;1.77;;;;;;;;;;4905916;29;20273;-56
2021/06/21 00:19:45;;;;;;;3.00;1.33;;;;;;;;;;4906281;29;20044;-57
2021/06/21 00:22:11;;;;;;;4.90;1.30;;;;;;;;;;4907516;29;20036;-57
2021/06/21 00:24:37;;;;;;;6.60;1.30;;;;;;;;;;4905714;29;20044;-57
2021/06/21 00:27:03;;;;;;;2.92;1.33;;;;;;;;;;4905017;29;20137;-57
2021/06/21 00:29:29;;;;;;;3.38;1.40;;;;;;;;;;4889644;29;20046;-56
2021/06/21 00:31:55;;;;;;;3.78;1.60;;;;;;;;;;4906450;29;20048;-56
2021/06/21 00:34:21;;;;;;;4.13;1.40;;;;;;;;;;4907086;29;20062;-57
2021/06/21 00:36:47;;;;;;;3.13;1.48;;;;;;;;;;4907024;29;20131;-57
2021/06/21 00:39:13;;;;;;;3.33;1.60;;;;;;;;;;4908537;29;20970;-56
2021/06/21 00:41:38;;;;;;;3.90;1.40;;;;;;;;;;4905704;29;20192;-56
2021/06/21 00:44:06;;;;;;;3.20;1.35;;;;;;;;;;4908033;29;20065;-58
2021/06/21 00:46:32;;;;;;;3.53;1.40;;;;;;;;;;4907593;29;20116;-58
2021/06/21 00:48:58;;;;;;;3.65;1.35;;;;;;;;;;4906374;29;20035;-58
2021/06/21 00:51:24;;;;;;;5.38;1.50;;;;;;;;;;4906879;29;20063;-58
2021/06/21 00:53:50;;;;;;;3.72;1.27;;;;;;;;;;4873897;29;20079;-57
2021/06/21 00:56:16;;;;;;;4.82;1.45;;;;;;;;;;4907992;29;20060;-58
2021/06/21 00:58:42;;;;;;;2.85;1.35;;;;;;;;;;4905934;29;21908;-58
2021/06/21 01:01:08;;;;;;;4.53;1.52;;;;;;;;;;4907330;29;20036;-57
2021/06/21 01:03:34;;;;;;;4.15;1.40;;;;;;;;;;4905587;29;20048;-58
2021/06/21 01:06:00;;;;;;;3.38;1.20;;;;;;;;;;4907266;29;20237;-55
2021/06/21 01:08:25;;;;;;;3.38;1.30;;;;;;;;;;4889389;29;20131;-57
2021/06/21 01:10:52;;;;;;;4.03;1.40;;;;;;;;;;4907173;29;20055;-57
2021/06/21 01:13:37;;;;;;;3.50;1.50;;;;;;;;;;4907765;29;20642;-56
2021/06/21 01:16:24;;;;;;;3.47;1.42;;;;;;;;;;4906251;29;20060;-55
2021/06/21 01:19:09;;;;;;;4.18;1.45;;;;;;;;;;4907423;29;20048;-57
2021/06/21 01:21:53;;;;;;;4.68;1.35;;;;;;;;;;4906160;29;20059;-56
2021/06/21 01:24:39;;;;;;;6.93;1.40;;;;;;;;;;4906071;29;20497;-55
2021/06/21 01:27:23;;;;;;;4.43;1.48;;;;;;;;;;4907183;29;20044;-57
2021/06/21 01:29:49;;;;;;;3.78;1.40;;;;;;;;;;4905423;29;20036;-56
2021/06/21 01:32:18;;;;;;;4.68;1.35;;;;;;;;;;4906283;29;20040;-55
2021/06/21 01:34:51;;;;;;;6.47;1.30;;;;;;;;;;4905889;29;20684;-56
2021/06/21 01:37:18;;;;;;;4.03;1.20;;;;;;;;;;4907693;29;20051;-55
2021/06/21 01:39:48;;;;;;;5.03;1.83;;;;;;;;;;4905844;29;20048;-56
2021/06/21 01:42:15;;;;;;;5.57;1.60;;;;;;;;;;4907290;29;20385;-57
2021/06/21 01:44:45;;;;;;;3.83;1.48;;;;;;;;;;4905313;29;20040;-56
2021/06/21 01:47:12;;;;;;;4.90;1.45;;;;;;;;;;4905703;29;20040;-57
2021/06/21 01:49:40;;;;;;;4.57;2.00;;;;;;;;;;4905401;29;21309;-57
2021/06/21 01:52:09;;;;;;;3.75;1.25;;;;;;;;;;4905388;29;20040;-57
2021/06/21 01:54:37;;;;;;;4.80;1.25;;;;;;;;;;4906167;29;20132;-57
2021/06/21 01:57:03;;;;;;;3.25;1.40;;;;;;;;;;4907113;29;20032;-56
2021/06/21 01:59:29;;;;;;;3.30;1.40;;;;;;;;;;4904860;29;20044;-57
2021/06/21 02:01:57;;;;;;;3.97;1.50;;;;;;;;;;4905954;29;20142;-55
2021/06/21 02:04:23;;;;;;;6.65;1.30;;;;;;;;;;4905580;29;20533;-55
2021/06/21 02:06:50;;;;;;;5.10;1.58;;;;;;;;;;4905727;29;20095;-55
2021/06/21 02:09:20;;;;;;;3.42;1.20;;;;;;;;;;4905287;29;20040;-56
2021/06/21 02:11:47;;;;;;;4.07;1.23;;;;;;;;;;4906055;29;20117;-56
2021/06/21 02:14:13;;;;;;;4.05;1.48;;;;;;;;;;4888158;29;20812;-56
2021/06/21 02:16:39;;;;;;;3.70;1.70;;;;;;;;;;4904959;29;20601;-56
2021/06/21 02:19:05;;;;;;;4.93;1.75;;;;;;;;;;4905538;29;20050;-55
2021/06/21 02:21:31;;;;;;;4.28;1.30;;;;;;;;;;4903460;29;20067;-56
2021/06/21 02:23:57;;;;;;;4.55;1.35;;;;;;;;;;4905865;29;20167;-56
2021/06/21 02:26:24;;;;;;;3.97;1.40;;;;;;;;;;4906081;29;20071;-56
2021/06/21 02:28:51;;;;;;;2.97;1.20;;;;;;;;;;4905889;29;20076;-56
2021/06/21 02:31:17;;;;;;;4.32;1.27;;;;;;;;;;4908029;29;20046;-54
2021/06/21 02:33:43;;;;;;;3.47;1.33;;;;;;;;;;4903869;29;20074;-56
2021/06/21 02:36:09;;;;;;;7.38;3.40;;;;;;;;;;4905877;29;20174;-56
2021/06/21 02:38:35;;;;;;;6.78;3.25;;;;;;;;;;4905062;29;20131;-57
2021/06/21 02:41:01;;;;;;;5.18;1.23;;;;;;;;;;4904354;29;20722;-56
2021/06/21 02:43:27;;;;;;;4.43;1.60;;;;;;;;;;4904509;29;20040;-55
2021/06/21 02:45:52;;;;;;;4.25;1.25;;;;;;;;;;4904901;29;20557;-55
2021/06/21 02:48:18;;;;;;;5.97;1.30;;;;;;;;;;4906543;29;20420;-56
2021/06/21 02:50:48;;;;;;;3.35;1.55;;;;;;;;;;4902215;29;20126;-57
2021/06/21 02:53:20;;;;;;;4.07;2.08;;;;;;;;;;4903670;29;20433;-55
2021/06/21 02:55:56;;;;;;;5.18;1.63;;;;;;;;;;4904968;29;20075;-55
2021/06/21 02:58:22;;;;;;;6.93;2.90;;;;;;;;;;4906019;29;20053;-55
2021/06/21 03:00:52;;;;;;;5.85;2.55;;;;;;;;;;4904189;29;20072;-54
2021/06/21 03:03:20;;;;;;;9.48;2.88;;;;;;;;;;4906308;29;20039;-57
2021/06/21 03:05:49;;;;;;;5.85;2.50;;;;;;;;;;4904243;29;22215;-56
2021/06/21 03:08:15;;;;;;;6.03;2.20;;;;;;;;;;4876028;29;20053;-56
2021/06/21 03:10:41;;;;;;;3.75;1.60;;;;;;;;;;4904523;29;20043;-56
2021/06/21 03:13:08;;;;;;;9.52;2.30;;;;;;;;;;4903493;29;20047;-55
2021/06/21 03:15:35;;;;;;;4.82;1.50;;;;;;;;;;4886931;29;20055;-56
2021/06/21 03:18:01;;;;;;;6.38;2.13;;;;;;;;;;4905542;29;20029;-57
2021/06/21 03:20:28;;;;;;;11.65;6.47;;;;;;;;;;4904318;29;20390;-56
2021/06/21 03:22:56;;;;;;;12.90;5.95;;;;;;;;;;4903485;29;20039;-55
2021/06/21 03:25:25;;;;;;;14.27;7.05;;;;;;;;;;4903005;29;20047;-56
2021/06/21 03:27:52;;;;;;;7.05;2.10;;;;;;;;;;4906512;29;20103;-57
2021/06/21 03:30:18;;;;;;;6.03;1.70;;;;;;;;;;4905138;29;20067;-57
2021/06/21 03:32:45;;;;;;;4.85;2.08;;;;;;;;;;4903369;29;20039;-57
2021/06/21 03:35:12;;;;;;;5.60;1.70;;;;;;;;;;4904285;29;20561;-57
2021/06/21 03:37:38;;;;;;;9.65;1.67;;;;;;;;;;4904364;29;20088;-57
2021/06/21 03:40:05;;;;;;;6.43;1.83;;;;;;;;;;4906398;29;20100;-57
2021/06/21 03:42:31;;;;;;;4.82;1.80;;;;;;;;;;4903355;29;20033;-57
2021/06/21 03:44:57;;;;;;;5.43;1.88;;;;;;;;;;4905434;29;20147;-56
2021/06/21 03:47:23;;;;;;;4.65;1.65;;;;;;;;;;4905361;29;20028;-56
2021/06/21 03:49:49;;;;;;;11.63;6.03;;;;;;;;;;4905420;29;20422;-56
2021/06/21 03:52:15;;;;;;;7.07;1.85;;;;;;;;;;4905150;29;20032;-56
2021/06/21 03:54:41;;;;;;;5.78;1.65;;;;;;;;;;4904092;29;20130;-57
2021/06/21 03:57:08;;;;;;;4.57;1.73;;;;;;;;;;4887959;29;20094;-57
2021/06/21 03:59:33;;;;;;;9.63;1.88;;;;;;;;;;4903429;29;20053;-56
2021/06/21 04:02:00;;;;;;;10.75;1.95;;;;;;;;;;4905496;29;20052;-57
2021/06/21 04:04:26;;;;;;;8.73;2.38;;;;;;;;;;4908272;29;20040;-56
2021/06/21 04:06:52;;;;;;;10.35;2.47;;;;;;;;;;4907030;29;20045;-57
2021/06/21 04:09:18;;;;;;;12.40;3.55;;;;;;;;;;4908175;29;20397;-56
2021/06/21 04:11:44;;;;;;;14.07;4.78;;;;;;;;;;4906662;29;20131;-57
2021/06/21 04:14:11;;;;;;;10.30;2.67;;;;;;;;;;4907253;29;20172;-57
2021/06/21 04:16:37;;;;;;;7.97;2.58;;;;;;;;;;4906342;29;20067;-56
2021/06/21 04:19:03;;;;;;;6.57;2.20;;;;;;;;;;4906756;29;20036;-57
2021/06/21 04:21:29;;;;;;;10.13;2.08;;;;;;;;;;4906415;29;21626;-56
2021/06/21 04:23:55;;;;;;;3.85;2.00;;;;;;;;;;4908903;29;20039;-57
2021/06/21 04:26:21;;;;;;;9.68;2.35;;;;;;;;;;4908317;29;20543;-57
2021/06/21 04:28:47;;;;;;;10.00;2.17;;;;;;;;;;4908840;29;20564;-57
2021/06/21 04:31:13;;;;;;;8.02;1.80;;;;;;;;;;4908423;29;20044;-56
2021/06/21 04:33:39;;;;;;;6.90;1.95;;;;;;;;;;4907344;29;20596;-56
2021/06/21 04:36:05;;;;;;;7.22;2.00;;;;;;;;;;4908294;29;20151;-56
2021/06/21 04:38:31;;;;;;;5.53;1.95;;;;;;;;;;4907040;29;20493;-56
2021/06/21 04:40:57;;;;;;;7.68;2.08;;;;;;;;;;4909481;29;20115;-55
2021/06/21 04:43:23;;;;;;;6.07;1.70;;;;;;;;;;4907657;29;20488;-55
2021/06/21 04:45:49;;;;;;;7.15;3.05;;;;;;;;;;4908212;29;20048;-52
2021/06/21 04:48:15;;;;;;;9.38;2.83;;;;;;;;;;4906265;29;20048;-57
2021/06/21 04:50:42;;;;;;;5.85;2.10;;;;;;;;;;4908430;29;20040;-55
2021/06/21 04:53:10;;;;;;;10.75;2.05;;;;;;;;;;4906301;29;20052;-55
2021/06/21 04:55:36;;;;;;;5.18;1.58;;;;;;;;;;4907032;29;20044;-55
2021/06/21 04:58:02;;;;;;;6.88;2.35;;;;;;;;;;4906601;29;20622;-55
2021/06/21 05:00:28;;;;;;;7.38;2.15;;;;;;;;;;4907094;29;20048;-55
2021/06/21 05:02:54;;;;;;;7.68;1.63;;;;;;;;;;4906904;29;20040;-56
2021/06/21 05:05:20;;;;;;;11.93;1.95;;;;;;;;;;4906534;29;20043;-55
2021/06/21 05:07:47;;;;;;;9.38;2.00;;;;;;;;;;4908788;29;20044;-55
2021/06/21 05:10:13;;;;;;;7.15;1.95;;;;;;;;;;4907897;29;20106;-55
2021/06/21 05:12:39;;;;;;;7.85;2.00;;;;;;;;;;4906033;29;20051;-55
2021/06/21 05:15:05;;;;;;;7.47;2.00;;;;;;;;;;4907579;29;20055;-56
2021/06/21 05:17:31;;;;;;;7.28;1.70;;;;;;;;;;4907076;29;20100;-54
2021/06/21 05:19:57;;;;;;;6.60;1.88;;;;;;;;;;4907991;29;20044;-56
2021/06/21 05:22:23;;;;;;;5.88;2.05;;;;;;;;;;4906257;29;20948;-55
2021/06/21 05:24:49;;;;;;;6.68;2.10;;;;;;;;;;4891503;29;20044;-54
2021/06/21 05:27:15;;;;;;;8.07;2.50;;;;;;;;;;4906821;29;20036;-56
2021/06/21 05:29:41;;;;;;;7.55;2.10;;;;;;;;;;4890131;29;20051;-55
2021/06/21 05:32:07;;;;;;;9.13;2.92;;;;;;;;;;4906380;29;20039;-54
2021/06/21 05:34:33;;;;;;;8.48;2.70;;;;;;;;;;4904867;29;20305;-56
2021/06/21 05:36:59;;;;;;;7.93;3.03;;;;;;;;;;4907749;29;20132;-55
2021/06/21 05:39:25;;;;;;;9.35;2.38;;;;;;;;;;4906424;29;20114;-52
2021/06/21 05:41:51;;;;;;;7.28;2.20;;;;;;;;;;4889873;29;20221;-55
2021/06/21 05:44:16;;;;;;;6.45;2.20;;;;;;;;;;4907061;29;20040;-55
2021/06/21 05:46:42;;;;;;;6.85;2.25;;;;;;;;;;4905972;29;20059;-56
2021/06/21 05:49:08;;;;;;;8.68;2.20;;;;;;;;;;4908105;29;20454;-54
2021/06/21 05:51:34;;;;;;;4.95;2.47;;;;;;;;;;4905798;29;20126;-54
2021/06/21 05:54:00;;;;;;;7.30;2.50;;;;;;;;;;4906556;29;20047;-54
2021/06/21 05:56:25;;;;;;;6.85;2.38;;;;;;;;;;4907054;29;20075;-54
2021/06/21 05:58:51;;;;;;;10.95;2.22;;;;;;;;;;4908485;29;20040;-53
2021/06/21 06:01:17;;;;;;;7.38;2.20;;;;;;;;;;4905622;29;20071;-52
2021/06/21 06:03:43;;;;;;;7.03;2.17;;;;;;;;;;4908055;29;20069;-53
2021/06/21 06:06:09;;;;;;;7.25;1.90;;;;;;;;;;4906961;29;20131;-52
2021/06/21 06:08:35;;;;;;;9.35;2.08;;;;;;;;;;4904696;29;20048;-51
2021/06/21 06:11:01;;;;;;;3.90;1.80;;;;;;;;;;4905142;29;20774;-54
2021/06/21 06:13:26;;;;;;;7.47;2.13;;;;;;;;;;4905833;29;20074;-55
2021/06/21 06:15:52;;;;;;;4.93;1.70;;;;;;;;;;4906078;29;20055;-55
2021/06/21 06:18:18;;;;;;;4.45;1.80;;;;;;;;;;4905212;29;20730;-55
2021/06/21 06:20:44;;;;;;;5.38;1.98;;;;;;;;;;4906905;29;20052;-56
2021/06/21 06:23:10;;;;;;;9.35;2.75;;;;;;;;;;4907547;29;20075;-54
2021/06/21 06:25:39;;;;;;;5.97;2.10;;;;;;;;;;4905551;29;20051;-55
2021/06/21 06:28:06;;;;;;;8.80;2.45;;;;;;;;;;4906804;29;20040;-55
2021/06/21 06:30:32;;;;;;;5.50;2.05;;;;;;;;;;4874819;29;20050;-53
2021/06/21 06:32:58;;;;;;;6.13;2.10;;;;;;;;;;4906262;29;20040;-56
2021/06/21 06:35:23;;;;;;;5.75;2.00;;;;;;;;;;4906157;29;20529;-56
2021/06/21 06:37:49;;;;;;;5.68;1.95;;;;;;;;;;4905365;29;20536;-55
2021/06/21 06:40:35;;;;;;;6.22;2.05;;;;;;;;;;4864527;29;20072;-53
2021/06/21 06:43:01;;;;;;;4.85;2.30;;;;;;;;;;4864804;29;20658;-56
2021/06/21 06:45:27;;;;;;;5.80;2.28;;;;;;;;;;4864128;29;20206;-56
2021/06/21 06:47:53;;;;;;;5.38;2.10;;;;;;;;;;4863811;29;20044;-55
2021/06/21 06:50:18;;;;;;;8.70;2.67;;;;;;;;;;4864366;29;20056;-53
2021/06/21 06:52:45;;;;;;;5.13;2.25;;;;;;;;;;4863542;29;20045;-54
2021/06/21 06:57:56;;;;;;;7.05;2.10;;;;;;;;;;4866942;29;20084;-56
2021/06/21 07:00:22;;;;;;;6.78;2.30;;;;;;;;;;4865768;29;20557;-56
2021/06/21 07:02:48;;;;;;;5.85;2.20;;;;;;;;;;4865705;29;20045;-56
2021/06/21 07:05:14;;;;;;;5.95;2.80;;;;;;;;;;4867181;29;20049;-56
2021/06/21 07:07:39;;;;;;;5.35;2.63;;;;;;;;;;4865059;29;20049;-56
2021/06/21 07:10:06;;;;;;;6.47;2.55;;;;;;;;;;4852745;29;20085;-53
2021/06/21 07:12:32;;;;;;;7.63;3.15;;;;;;;;;;4866980;29;20503;-56
2021/06/21 07:14:58;;;;;;;6.75;3.40;;;;;;;;;;4867459;29;20124;-56
2021/06/21 07:17:24;;;;;;;6.88;2.95;;;;;;;;;;4873906;29;20092;-56
2021/06/21 07:19:50;;;;;;;6.15;2.80;;;;;;;;;;4907677;29;20103;-55
2021/06/21 07:22:16;;;;;;;6.35;3.03;;;;;;;;;;4906137;29;20521;-55
2021/06/21 07:24:42;;;;;;;6.85;2.92;;;;;;;;;;4905584;29;20044;-56
2021/06/21 07:27:08;;;;;;;10.25;3.13;;;;;;;;;;4905491;29;20047;-54
2021/06/21 07:29:34;;;;;;;10.45;4.30;;;;;;;;;;4888841;29;20061;-53
2021/06/21 07:32:00;;;;;;;10.38;4.60;;;;;;;;;;4904385;29;20044;-55
2021/06/21 07:34:26;;;;;;;8.85;3.88;;;;;;;;;;4910682;29;20031;-55
2021/06/21 07:36:52;;;;;;;10.40;4.28;;;;;;;;;;4909913;29;20058;-55
2021/06/21 07:39:17;;;;;;;8.15;4.00;;;;;;;;;;4910906;29;20039;-54
2021/06/21 07:41:44;;;;;;;10.02;3.75;;;;;;;;;;4907283;29;20130;-54
2021/06/21 07:44:09;;;;;;;7.32;3.00;;;;;;;;;;4894466;29;20307;-53
2021/06/21 07:46:35;;;;;;;9.60;3.47;;;;;;;;;;4909060;29;20754;-55
2021/06/21 07:49:01;;;;;;;8.57;3.20;;;;;;;;;;4909406;29;20061;-55
2021/06/21 07:51:27;;;;;;;11.75;3.40;;;;;;;;;;4908553;29;20039;-55
2021/06/21 07:53:54;;;;;;;6.85;2.78;;;;;;;;;;4908568;29;20040;-55
2021/06/21 07:56:20;;;;;;;8.95;3.05;;;;;;;;;;4908070;29;20557;-55
2021/06/21 07:58:47;;;;;;;10.18;3.42;;;;;;;;;;4910136;29;20040;-56
2021/06/21 08:01:13;;;;;;;13.20;3.03;;;;;;;;;;4907848;29;20043;-56
2021/06/21 08:03:39;;;;;;;9.65;2.90;;;;;;;;;;4908477;29;20059;-56
2021/06/21 08:06:08;;;;;;;7.13;3.20;;;;;;;;;;4907304;29;20134;-55
2021/06/21 08:08:35;;;;;;;8.05;3.00;;;;;;;;;;4908721;29;20063;-56
2021/06/21 08:11:02;;;;;;;7.20;2.70;;;;;;;;;;4907926;29;20036;-55
2021/06/21 08:13:28;;;;;;;6.35;2.90;;;;;;;;;;4871609;29;20036;-55
2021/06/21 08:15:54;;;;;;;7.65;3.05;;;;;;;;;;4908268;29;20051;-52
2021/06/21 08:18:19;;;;;;;6.22;2.42;;;;;;;;;;4907709;29;20131;-56
2021/06/21 08:20:45;;;;;;;9.73;2.78;;;;;;;;;;4906985;29;20046;-55
2021/06/21 08:23:14;;;;;;;7.55;2.75;;;;;;;;;;4890466;29;20468;-54
2021/06/21 08:25:41;;;;;;;9.13;3.42;;;;;;;;;;4906599;29;20104;-55
2021/06/21 08:28:07;;;;;;;7.50;2.88;;;;;;;;;;4909003;29;20123;-55
2021/06/21 08:30:33;;;;;;;9.02;3.40;;;;;;;;;;4908451;29;20050;-52
2021/06/21 08:32:59;;;;;;;9.45;3.08;;;;;;;;;;4891371;29;20067;-55
2021/06/21 08:35:25;;;;;;;8.35;3.05;;;;;;;;;;4907362;29;20072;-55
2021/06/21 08:37:50;;;;;;;13.13;3.40;;;;;;;;;;4908323;29;20155;-55
2021/06/21 08:40:18;;;;;;;10.05;3.33;;;;;;;;;;4907233;29;20039;-56
2021/06/21 08:42:45;;;;;;;8.13;3.20;;;;;;;;;;4906191;29;20051;-54
2021/06/21 08:45:11;;;;;;;8.73;3.38;;;;;;;;;;4907582;29;21417;-54
2021/06/21 08:47:38;;;;;;;6.95;3.58;;;;;;;;;;4906957;29;20107;-54
2021/06/21 08:50:05;;;;;;;6.05;3.08;;;;;;;;;;4908723;29;20044;-52
2021/06/21 08:52:31;;;;;;;10.88;3.05;;;;;;;;;;4906006;29;22120;-55
2021/06/21 08:55:04;;;;;;;5.60;3.05;;;;;;;;;;4906361;29;20056;-53
2021/06/21 08:57:31;;;;;;;5.70;3.00;;;;;;;;;;4908320;29;20064;-55
2021/06/21 08:59:57;;;;;;;8.27;3.08;;;;;;;;;;4907646;29;20118;-56
2021/06/21 09:02:22;;;;;;;9.00;3.20;;;;;;;;;;4905775;29;20501;-56
2021/06/21 09:04:48;;;;;;;9.50;3.20;;;;;;;;;;4908275;29;20040;-53
2021/06/21 09:07:15;;;;;;;11.30;3.17;;;;;;;;;;4908118;29;20051;-53
2021/06/21 09:09:41;;;;;;;7.78;3.60;;;;;;;;;;4907439;29;21049;-54
2021/06/21 09:12:07;;;;;;;9.48;3.47;;;;;;;;;;4904764;29;20047;-54
2021/06/21 09:14:34;;;;;;;7.32;3.65;;;;;;;;;;4906532;29;20055;-56
2021/06/21 09:17:05;;;;;;;6.88;3.70;;;;;;;;;;4907553;29;20176;-56
2021/06/21 09:19:43;;;;;;;7.78;3.17;;;;;;;;;;4907570;29;20050;-55
2021/06/21 09:22:20;;;;;;;7.22;3.90;;;;;;;;;;4906671;29;20051;-53
2021/06/21 09:24:46;;;;;;;6.60;3.63;;;;;;;;;;4905600;29;20048;-55
2021/06/21 09:27:16;;;;;;;9.65;3.88;;;;;;;;;;4905654;29;20040;-56
2021/06/21 09:29:42;;;;;;;9.10;3.25;;;;;;;;;;4906561;29;20450;-53
2021/06/21 09:32:08;;;;;;;9.65;3.58;;;;;;;;;;4889211;29;20067;-56
2021/06/21 09:34:34;;;;;;;6.75;3.85;;;;;;;;;;4906569;29;20040;-56
2021/06/21 09:37:08;;;;;;;7.00;3.42;;;;;;;;;;4908281;29;20130;-56
2021/06/21 09:39:39;;;;;;;10.48;3.97;;;;;;;;;;4889873;29;20063;-55
2021/06/21 09:42:24;;;;;;;7.22;4.00;;;;;;;;;;4909198;29;20042;-57
2021/06/21 09:44:54;;;;;;;11.73;4.45;;;;;;;;;;4907606;29;20111;-56
2021/06/21 09:47:20;;;;;;;7.13;3.92;;;;;;;;;;4906846;29;20176;-57
2021/06/21 09:49:52;;;;;;;8.27;4.32;;;;;;;;;;4908345;29;20036;-57
2021/06/21 09:52:37;;;;;;;8.43;3.78;;;;;;;;;;4878180;29;20122;-57
2021/06/21 09:55:15;;;;;;;12.10;5.47;;;;;;;;;;4906398;29;20063;-56
2021/06/21 09:57:41;;;;;;;9.68;4.50;;;;;;;;;;4906324;29;20442;-56
2021/06/21 10:00:09;;;;;;;8.85;4.18;;;;;;;;;;4907196;29;20044;-56
2021/06/21 10:02:35;;;;;;;7.35;3.78;;;;;;;;;;4905185;29;20074;-58
2021/06/21 10:05:01;;;;;;;6.78;4.15;;;;;;;;;;4905249;29;20051;-57
2021/06/21 10:07:28;;;;;;;9.82;4.20;;;;;;;;;;4905214;29;20840;-57
2021/06/21 10:09:59;;;;;;;9.98;4.22;;;;;;;;;;4906242;29;20076;-57
2021/06/21 10:12:25;;;;;;;10.20;3.80;;;;;;;;;;4904624;29;20409;-57
2021/06/21 10:14:51;;;;;;;8.68;4.00;;;;;;;;;;4905504;29;20048;-56
2021/06/21 10:17:17;;;;;;;9.45;4.30;;;;;;;;;;4905079;29;20040;-56
2021/06/21 10:19:42;;;;;;;6.80;4.25;;;;;;;;;;4904448;29;20040;-57
2021/06/21 10:22:08;;;;;;;9.18;4.30;;;;;;;;;;4905864;29;20040;-57
2021/06/21 10:24:34;;;;;;;7.95;4.15;;;;;;;;;;4904334;29;20462;-57
2021/06/21 10:27:01;;;;;;;7.88;3.95;;;;;;;;;;4905862;29;20040;-59
2021/06/21 10:29:27;;;;;;;8.57;4.13;;;;;;;;;;4904472;29;20046;-57
2021/06/21 10:31:52;;;;;;;7.68;4.63;;;;;;;;;;4887268;29;20048;-56
2021/06/21 10:34:19;;;;;;;9.57;4.03;;;;;;;;;;4905216;29;20067;-58
2021/06/21 10:36:49;;;;;;;7.10;4.50;;;;;;;;;;4903267;29;20048;-56
2021/06/21 10:39:21;;;;;;;9.10;4.10;;;;;;;;;;4906241;29;20492;-57
2021/06/21 10:42:09;;;;;;;8.23;3.72;;;;;;;;;;4902797;29;20043;-56
2021/06/21 10:44:38;;;;;;;8.18;4.38;;;;;;;;;;4903650;29;20097;-58
2021/06/21 10:47:24;;;;;;;9.75;3.90;;;;;;;;;;4905107;29;20055;-55
2021/06/21 10:49:56;;;;;;;6.65;3.70;;;;;;;;;;4887010;29;20123;-57
2021/06/21 10:52:33;;;;;;;6.25;3.38;;;;;;;;;;4903467;29;20144;-56
2021/06/21 10:55:17;;;;;;;7.05;3.55;;;;;;;;;;4904856;29;20052;-55
2021/06/21 10:57:43;;;;;;;7.22;3.72;;;;;;;;;;4903647;29;20055;-58
2021/06/21 11:00:13;;;;;;;7.63;3.50;;;;;;;;;;4893154;29;20478;-57
2021/06/21 11:02:39;;;;;;;5.95;3.05;;;;;;;;;;4902328;29;20048;-56
2021/06/21 11:05:05;;;;;;;7.95;3.03;;;;;;;;;;4906021;29;20323;-58
2021/06/21 11:07:32;;;;;;;9.48;3.42;;;;;;;;;;4904758;29;20055;-58
2021/06/21 11:09:59;;;;;;;4.45;2.55;;;;;;;;;;4905442;29;20040;-56
2021/06/21 11:12:26;;;;;;;7.03;2.63;;;;;;;;;;4903570;29;20040;-58
2021/06/21 11:15:06;;;;;;;8.45;3.10;;;;;;;;;;4905264;29;20051;-58
2021/06/21 11:17:33;;;;;;;6.60;2.80;;;;;;;;;;4902485;29;20051;-58
2021/06/21 11:20:17;;;;;;;5.53;2.70;;;;;;;;;;4903790;29;20660;-58
2021/06/21 11:22:50;;;;;;;5.18;2.60;;;;;;;;;;4905405;29;20048;-58
2021/06/21 11:25:15;;;;;;;;;;;;;;;;;;4905781;29;20044;-57
2021/06/21 11:27:43;;;;;;;5.03;2.50;;;;;;;;;;4904456;29;20024;-57
2021/06/21 11:30:22;;;;;;;4.70;2.22;;;;;;;;;;4903936;29;20040;-59
2021/06/21 11:33:09;;;;;;;6.63;2.47;;;;;;;;;;4904904;29;20051;-59
2021/06/21 11:35:47;;;;;;;4.75;2.33;;;;;;;;;;4904410;29;20048;-59
2021/06/21 11:38:40;;;;;;;5.13;2.53;;;;;;;;;;4903912;29;20051;-60
2021/06/21 11:41:20;;;;;;;7.45;2.75;;;;;;;;;;4901294;29;20040;-59
2021/06/21 11:43:46;;;;;;;8.02;2.95;;;;;;;;;;4904954;29;20913;-55
2021/06/21 11:46:32;;;;;;;5.57;2.90;;;;;;;;;;4904914;29;20040;-60
2021/06/21 11:49:12;;;;;;;6.13;2.92;;;;;;;;;;4902925;29;20071;-60
2021/06/21 11:51:38;;;;;;;5.35;3.00;;;;;;;;;;4904796;29;20056;-59
2021/06/21 11:54:04;;;;;;;7.10;2.70;;;;;;;;;;4905738;29;20513;-59
2021/06/21 11:56:30;;;;;;;4.55;2.42;;;;;;;;;;4905486;29;20056;-59
2021/06/21 11:58:57;;;;;;;6.13;3.05;;;;;;;;;;4904709;29;20541;-59
2021/06/21 12:01:24;;;;;;;6.07;2.67;;;;;;;;;;4903631;29;20059;-57
2021/06/21 12:03:57;;;;;;;6.80;2.55;;;;;;;;;;4904570;29;20052;-58
2021/06/21 12:06:24;;;;;;;4.05;2.30;;;;;;;;;;4903553;29;20036;-57
2021/06/21 12:08:49;;;;;;;8.32;2.92;;;;;;;;;;4905791;29;20044;-56
2021/06/21 12:11:16;;;;;;;5.68;2.63;;;;;;;;;;4903984;29;20040;-56
2021/06/21 12:13:43;;;;;;;7.07;2.88;;;;;;;;;;4903538;29;20052;-56
2021/06/21 12:16:17;;;;;;;9.35;2.88;;;;;;;;;;4905549;29;20059;-61
2021/06/21 12:18:49;;;;;;;7.45;3.05;;;;;;;;;;4903775;29;20047;-58
2021/06/21 12:21:26;;;;;;;4.68;3.03;;;;;;;;;;4904424;29;20052;-56
2021/06/21 12:23:52;;;;;;;9.00;3.30;;;;;;;;;;4907195;29;20036;-58
2021/06/21 12:26:18;;;;;;;5.90;3.10;;;;;;;;;;4908613;29;20055;-58
2021/06/21 12:28:44;;;;;;;6.05;3.08;;;;;;;;;;4907809;29;20036;-59
2021/06/21 12:31:13;;;;;;;4.75;2.78;;;;;;;;;;4907801;29;20213;-58
2021/06/21 12:33:40;;;;;;;9.52;2.88;;;;;;;;;;4907324;29;20051;-59
2021/06/21 12:36:13;;;;;;;5.90;3.10;;;;;;;;;;4909003;29;20135;-59
2021/06/21 12:38:54;;;;;;;8.40;2.92;;;;;;;;;;4906585;29;20052;-59
2021/06/21 12:41:36;;;;;;;5.97;2.75;;;;;;;;;;4906577;29;20056;-55
2021/06/21 12:44:06;;;;;;;6.45;3.33;;;;;;;;;;4909088;29;20048;-60
2021/06/21 12:46:33;;;;;;;5.15;2.70;;;;;;;;;;4907951;29;20040;-60
2021/06/21 12:49:01;;;;;;;6.88;3.20;;;;;;;;;;4909175;29;20906;-60
2021/06/21 12:51:27;;;;;;;10.32;2.90;;;;;;;;;;4907528;29;20039;-58
2021/06/21 12:53:54;;;;;;;5.35;2.85;;;;;;;;;;4907578;29;20350;-60
2021/06/21 12:56:21;;;;;;;5.07;2.65;;;;;;;;;;4908294;29;20363;-59
2021/06/21 12:58:47;;;;;;;11.20;2.72;;;;;;;;;;4908982;29;20127;-59
2021/06/21 13:01:27;;;;;;;5.07;2.42;;;;;;;;;;4907592;29;20095;-59
2021/06/21 13:03:53;;;;;;;4.20;2.25;;;;;;;;;;4881443;29;20118;-59
2021/06/21 13:06:29;;;;;;;8.73;2.70;;;;;;;;;;4908489;29;20040;-60
2021/06/21 13:09:06;;;;;;;5.70;2.63;;;;;;;;;;4906900;29;20115;-60
2021/06/21 13:11:46;;;;;;;4.43;2.50;;;;;;;;;;4907521;29;20050;-59
2021/06/21 13:14:12;;;;;;;4.97;2.28;;;;;;;;;;4910149;29;20072;-59
2021/06/21 13:16:38;;;;;;;4.50;2.05;;;;;;;;;;4906838;29;20055;-60
2021/06/21 13:19:11;;;;;;;5.50;2.22;;;;;;;;;;4889782;29;20048;-60
2021/06/21 13:21:57;;;;;;;3.92;2.00;;;;;;;;;;4905090;29;20067;-58
2021/06/21 13:24:31;;;;;;;4.25;2.30;;;;;;;;;;4907663;29;20040;-59
2021/06/21 13:26:57;;;;;;;5.05;2.47;;;;;;;;;;4906128;29;20036;-59
2021/06/21 13:29:24;;;;;;;7.68;2.40;;;;;;;;;;4908845;29;20135;-59
2021/06/21 13:31:56;;;;;;;8.43;2.45;;;;;;;;;;4908238;29;20062;-58
2021/06/21 13:34:40;;;;;;;5.53;2.65;;;;;;;;;;4906783;29;20039;-58
2021/06/21 13:37:07;;;;;;;5.25;2.33;;;;;;;;;;4905349;29;20501;-58
2021/06/21 13:39:33;;;;;;;5.93;2.17;;;;;;;;;;4905845;29;20028;-56
2021/06/21 13:42:06;;;;;;;3.97;1.90;;;;;;;;;;4906831;29;20044;-59
2021/06/21 13:44:32;;;;;;;;;;;;;;;;;;4907668;29;20044;-58
2021/06/21 13:46:57;;;;;;;6.80;2.60;;;;;;;;;;4906140;29;20872;-61
2021/06/21 13:49:24;;;;;;;5.45;2.67;;;;;;;;;;4907311;29;20501;-58
2021/06/21 13:52:08;;;;;;;5.22;2.53;;;;;;;;;;4907446;29;20159;-60
2021/06/21 13:54:34;;;;;;;5.72;2.40;;;;;;;;;;4905430;29;20135;-60
2021/06/21 13:57:11;;;;;;;5.20;2.50;;;;;;;;;;4905665;29;20048;-60
2021/06/21 13:59:46;;;;;;;4.38;2.22;;;;;;;;;;4905777;29;20054;-60
2021/06/21 14:02:13;;;;;;;4.25;2.20;;;;;;;;;;4907051;29;20035;-58
2021/06/21 14:04:38;;;;;;;5.10;2.20;;;;;;;;;;4906142;29;20047;-60
2021/06/21 14:07:04;;;;;;;8.60;2.60;;;;;;;;;;4904459;29;20036;-62
2021/06/21 14:09:30;;;;;;;4.68;2.40;;;;;;;;;;4905216;29;20044;-61
2021/06/21 14:11:56;;;;;;;6.43;2.20;;;;;;;;;;4906317;29;20043;-60
2021/06/21 14:14:22;;;;;;;5.15;2.10;;;;;;;;;;4888644;29;20069;-60
2021/06/21 14:16:48;;;;;;;4.75;1.98;;;;;;;;;;4905727;29;20052;-60
2021/06/21 14:19:14;;;;;;;6.70;2.08;;;;;;;;;;4906625;29;20047;-61
2021/06/21 14:21:43;;;;;;;7.53;2.20;;;;;;;;;;4887348;29;20088;-61
2021/06/21 14:24:12;;;;;;;4.63;2.20;;;;;;;;;;4906596;29;20044;-58
2021/06/21 14:26:38;;;;;;;4.75;2.40;;;;;;;;;;4906585;29;20063;-60
2021/06/21 14:29:04;;;;;;;8.23;1.90;;;;;;;;;;4908337;29;20474;-60
2021/06/21 14:31:33;;;;;;;5.65;2.30;;;;;;;;;;4906036;29;20090;-62
2021/06/21 14:33:59;;;;;;;4.35;1.98;;;;;;;;;;4906816;29;20039;-58
2021/06/21 14:36:25;;;;;;;4.28;2.20;;;;;;;;;;4905302;29;20055;-59
2021/06/21 14:38:51;;;;;;;4.10;2.13;;;;;;;;;;4904266;29;20481;-58
2021/06/21 14:41:17;;;;;;;6.95;1.83;;;;;;;;;;4898556;29;20509;-60
2021/06/21 14:43:43;;;;;;;4.40;1.90;;;;;;;;;;4899925;29;20043;-60
2021/06/21 14:46:09;;;;;;;4.63;2.17;;;;;;;;;;4900288;29;20083;-58
2021/06/21 14:48:36;;;;;;;8.90;2.20;;;;;;;;;;4897778;29;20558;-60
2021/06/21 14:51:06;;;;;;;4.30;1.90;;;;;;;;;;4899419;29;20032;-59